Redding Municipal Airport

Airport
ICAO code: 
KRDD
Summary
ICAO Region: 
NAM
Territory: 
Location: 
Redding, California,
Coordinates: 
Aerial View: 
40° 30' 34.372" N, 122° 17' 41.478" W
Metar
Observation
KRDD 020753Z AUTO 01003KT 10SM CLR 08/05 A3013 RMK AO2 SLP200 T00830050 402830067
Station
Redding, Redding Municipal Airport
Date/Time
2021-12-02 07:53:00
Wind direction
10°
Wind speed
03 kts
Lowest cloud amount
n/a
Temperature
8.3°C
Dew point
5°C
Humidity
79%
Weather condition
n/a

Description

Redding Municipal Airport is a city-owned public-use airport located 10 km southeast of the central business district of Redding, a city in Shasta County, California.

Climatology

Dry-summer subtropical ”Mediterranean" climate (Köppen climate classification Csb) - characterized by warm, dry summers and mild winters.

Runways

Designator Length Width Surface Rops
12/30 1544 46 ASP Yes/Yes
16/34 2135 46 ASP Yes/Yes
Airport map: 
Aerial View: 

SKYbrary Partners:

Safety knowledge contributed by: